sensor_id;sensor_type;location;lat;lon;timestamp;temperature;humidity
83283;DHT22;73190;50.780;5.658;2024-01-30T00:00:07;11.90;70.30
83283;DHT22;73190;50.780;5.658;2024-01-30T00:02:34;11.90;69.90
83283;DHT22;73190;50.780;5.658;2024-01-30T00:05:02;12.10;69.40
83283;DHT22;73190;50.780;5.658;2024-01-30T00:07:30;12.00;69.70
83283;DHT22;73190;50.780;5.658;2024-01-30T00:09:58;12.00;69.80
83283;DHT22;73190;50.780;5.658;2024-01-30T00:12:26;12.00;69.70
83283;DHT22;73190;50.780;5.658;2024-01-30T00:14:53;11.90;70.10
83283;DHT22;73190;50.780;5.658;2024-01-30T00:17:21;11.80;70.40
83283;DHT22;73190;50.780;5.658;2024-01-30T00:19:49;11.80;70.30
83283;DHT22;73190;50.780;5.658;2024-01-30T00:22:17;11.90;70.30
83283;DHT22;73190;50.780;5.658;2024-01-30T00:24:45;11.80;70.60
83283;DHT22;73190;50.780;5.658;2024-01-30T00:27:12;11.80;70.80
83283;DHT22;73190;50.780;5.658;2024-01-30T00:29:40;11.80;70.50
83283;DHT22;73190;50.780;5.658;2024-01-30T00:32:07;11.70;71.10
83283;DHT22;73190;50.780;5.658;2024-01-30T00:34:35;11.70;71.10
83283;DHT22;73190;50.780;5.658;2024-01-30T00:37:02;11.60;71.20
83283;DHT22;73190;50.780;5.658;2024-01-30T00:39:30;11.80;70.80
83283;DHT22;73190;50.780;5.658;2024-01-30T00:41:57;11.70;71.00
83283;DHT22;73190;50.780;5.658;2024-01-30T00:44:25;11.60;71.70
83283;DHT22;73190;50.780;5.658;2024-01-30T00:46:53;11.60;71.90
83283;DHT22;73190;50.780;5.658;2024-01-30T00:49:21;11.60;71.70
83283;DHT22;73190;50.780;5.658;2024-01-30T00:51:48;11.70;71.20
83283;DHT22;73190;50.780;5.658;2024-01-30T00:54:15;11.80;70.60
83283;DHT22;73190;50.780;5.658;2024-01-30T00:56:43;11.70;70.90
83283;DHT22;73190;50.780;5.658;2024-01-30T00:59:11;11.80;71.00
83283;DHT22;73190;50.780;5.658;2024-01-30T01:01:39;11.90;70.20
83283;DHT22;73190;50.780;5.658;2024-01-30T01:04:06;11.80;70.60
83283;DHT22;73190;50.780;5.658;2024-01-30T01:06:34;11.80;70.90
83283;DHT22;73190;50.780;5.658;2024-01-30T01:09:01;11.80;70.80
83283;DHT22;73190;50.780;5.658;2024-01-30T01:11:30;11.80;70.80
83283;DHT22;73190;50.780;5.658;2024-01-30T01:13:57;11.80;70.80
83283;DHT22;73190;50.780;5.658;2024-01-30T01:16:25;11.80;71.00
83283;DHT22;73190;50.780;5.658;2024-01-30T01:18:53;11.90;70.90
83283;DHT22;73190;50.780;5.658;2024-01-30T01:21:20;11.90;70.40
83283;DHT22;73190;50.780;5.658;2024-01-30T01:23:48;11.90;70.70
83283;DHT22;73190;50.780;5.658;2024-01-30T01:26:15;11.90;70.60
83283;DHT22;73190;50.780;5.658;2024-01-30T01:28:43;12.00;70.20
83283;DHT22;73190;50.780;5.658;2024-01-30T01:31:10;12.10;69.80
83283;DHT22;73190;50.780;5.658;2024-01-30T01:33:38;12.10;69.80
83283;DHT22;73190;50.780;5.658;2024-01-30T01:36:05;12.00;70.00
83283;DHT22;73190;50.780;5.658;2024-01-30T01:38:33;12.00;70.10
83283;DHT22;73190;50.780;5.658;2024-01-30T01:41:01;11.90;70.80
83283;DHT22;73190;50.780;5.658;2024-01-30T01:43:29;11.90;70.90
83283;DHT22;73190;50.780;5.658;2024-01-30T01:45:57;11.90;70.80
83283;DHT22;73190;50.780;5.658;2024-01-30T01:48:25;11.90;70.70
83283;DHT22;73190;50.780;5.658;2024-01-30T01:50:53;12.00;70.20
83283;DHT22;73190;50.780;5.658;2024-01-30T01:53:21;12.00;70.60
83283;DHT22;73190;50.780;5.658;2024-01-30T01:55:49;12.10;69.90
83283;DHT22;73190;50.780;5.658;2024-01-30T01:58:20;12.00;70.10
83283;DHT22;73190;50.780;5.658;2024-01-30T02:00:48;12.00;70.50
83283;DHT22;73190;50.780;5.658;2024-01-30T02:03:17;11.90;71.00
83283;DHT22;73190;50.780;5.658;2024-01-30T02:05:47;11.70;71.80
83283;DHT22;73190;50.780;5.658;2024-01-30T02:08:14;11.80;71.50
83283;DHT22;73190;50.780;5.658;2024-01-30T02:10:42;12.00;70.70
83283;DHT22;73190;50.780;5.658;2024-01-30T02:13:10;12.10;70.40
83283;DHT22;73190;50.780;5.658;2024-01-30T02:15:37;12.20;70.00
83283;DHT22;73190;50.780;5.658;2024-01-30T02:18:05;12.20;70.10
83283;DHT22;73190;50.780;5.658;2024-01-30T02:20:34;12.00;71.10
83283;DHT22;73190;50.780;5.658;2024-01-30T02:23:02;12.00;70.70
83283;DHT22;73190;50.780;5.658;2024-01-30T02:25:40;12.20;70.10
83283;DHT22;73190;50.780;5.658;2024-01-30T02:28:04;12.20;69.90
83283;DHT22;73190;50.780;5.658;2024-01-30T02:30:32;12.30;69.80
83283;DHT22;73190;50.780;5.658;2024-01-30T02:32:59;12.30;69.70
83283;DHT22;73190;50.780;5.658;2024-01-30T02:35:27;12.30;70.10
83283;DHT22;73190;50.780;5.658;2024-01-30T02:37:54;12.20;70.30
83283;DHT22;73190;50.780;5.658;2024-01-30T02:40:23;12.10;70.70
83283;DHT22;73190;50.780;5.658;2024-01-30T02:42:50;12.10;71.00
83283;DHT22;73190;50.780;5.658;2024-01-30T02:45:18;12.10;70.90
83283;DHT22;73190;50.780;5.658;2024-01-30T02:47:46;12.00;71.30
83283;DHT22;73190;50.780;5.658;2024-01-30T02:50:13;12.10;71.00
83283;DHT22;73190;50.780;5.658;2024-01-30T02:52:41;12.00;71.10
83283;DHT22;73190;50.780;5.658;2024-01-30T02:55:10;12.00;71.50
83283;DHT22;73190;50.780;5.658;2024-01-30T02:57:39;12.00;71.50
83283;DHT22;73190;50.780;5.658;2024-01-30T03:00:08;12.00;71.20
83283;DHT22;73190;50.780;5.658;2024-01-30T03:02:36;12.00;71.40
83283;DHT22;73190;50.780;5.658;2024-01-30T03:05:05;12.10;71.20
83283;DHT22;73190;50.780;5.658;2024-01-30T03:07:33;12.00;71.60
83283;DHT22;73190;50.780;5.658;2024-01-30T03:10:01;12.10;71.40
83283;DHT22;73190;50.780;5.658;2024-01-30T03:12:29;12.10;71.30
83283;DHT22;73190;50.780;5.658;2024-01-30T03:14:56;12.10;71.00
83283;DHT22;73190;50.780;5.658;2024-01-30T03:17:24;12.10;71.10
83283;DHT22;73190;50.780;5.658;2024-01-30T03:19:51;12.00;71.60
83283;DHT22;73190;50.780;5.658;2024-01-30T03:22:19;12.10;71.30
83283;DHT22;73190;50.780;5.658;2024-01-30T03:24:46;12.20;71.00
83283;DHT22;73190;50.780;5.658;2024-01-30T03:27:14;12.20;71.00
83283;DHT22;73190;50.780;5.658;2024-01-30T03:29:41;12.20;71.00
83283;DHT22;73190;50.780;5.658;2024-01-30T03:32:09;12.10;71.30
83283;DHT22;73190;50.780;5.658;2024-01-30T03:34:36;12.00;71.90
83283;DHT22;73190;50.780;5.658;2024-01-30T03:37:04;12.10;71.60
83283;DHT22;73190;50.780;5.658;2024-01-30T03:39:31;12.10;71.40
83283;DHT22;73190;50.780;5.658;2024-01-30T03:41:59;12.00;72.00
83283;DHT22;73190;50.780;5.658;2024-01-30T03:44:26;12.10;71.50
83283;DHT22;73190;50.780;5.658;2024-01-30T03:46:54;12.20;71.30
83283;DHT22;73190;50.780;5.658;2024-01-30T03:49:21;12.20;71.20
83283;DHT22;73190;50.780;5.658;2024-01-30T03:51:49;12.10;72.00
83283;DHT22;73190;50.780;5.658;2024-01-30T03:54:16;12.00;72.70
83283;DHT22;73190;50.780;5.658;2024-01-30T03:56:44;11.90;72.70
83283;DHT22;73190;50.780;5.658;2024-01-30T03:59:11;11.90;73.20
83283;DHT22;73190;50.780;5.658;2024-01-30T04:01:39;11.80;73.90
83283;DHT22;73190;50.780;5.658;2024-01-30T04:04:07;11.80;73.80
83283;DHT22;73190;50.780;5.658;2024-01-30T04:06:34;11.80;73.70
83283;DHT22;73190;50.780;5.658;2024-01-30T04:09:04;11.90;73.30
83283;DHT22;73190;50.780;5.658;2024-01-30T04:11:31;11.80;73.70
83283;DHT22;73190;50.780;5.658;2024-01-30T04:13:59;11.90;73.50
83283;DHT22;73190;50.780;5.658;2024-01-30T04:16:26;11.80;73.60
83283;DHT22;73190;50.780;5.658;2024-01-30T04:18:54;11.70;74.00
83283;DHT22;73190;50.780;5.658;2024-01-30T04:21:22;11.80;73.90
83283;DHT22;73190;50.780;5.658;2024-01-30T04:23:50;11.70;74.30
83283;DHT22;73190;50.780;5.658;2024-01-30T04:26:18;11.80;74.00
83283;DHT22;73190;50.780;5.658;2024-01-30T04:28:45;11.70;73.90
83283;DHT22;73190;50.780;5.658;2024-01-30T04:31:13;11.80;74.10
83283;DHT22;73190;50.780;5.658;2024-01-30T04:33:40;11.80;74.00
83283;DHT22;73190;50.780;5.658;2024-01-30T04:36:11;11.90;74.10
83283;DHT22;73190;50.780;5.658;2024-01-30T04:38:38;11.80;74.40
83283;DHT22;73190;50.780;5.658;2024-01-30T04:41:06;11.80;74.40
83283;DHT22;73190;50.780;5.658;2024-01-30T04:43:34;11.80;74.60
83283;DHT22;73190;50.780;5.658;2024-01-30T04:46:02;11.80;74.70
83283;DHT22;73190;50.780;5.658;2024-01-30T04:48:30;11.70;74.60
83283;DHT22;73190;50.780;5.658;2024-01-30T04:50:58;11.80;74.10
83283;DHT22;73190;50.780;5.658;2024-01-30T04:53:27;12.00;73.60
83283;DHT22;73190;50.780;5.658;2024-01-30T04:55:54;12.00;73.30
83283;DHT22;73190;50.780;5.658;2024-01-30T04:58:22;12.00;73.20
83283;DHT22;73190;50.780;5.658;2024-01-30T05:00:49;11.90;73.60
83283;DHT22;73190;50.780;5.658;2024-01-30T05:03:19;12.00;73.50
83283;DHT22;73190;50.780;5.658;2024-01-30T05:05:48;12.00;73.80
83283;DHT22;73190;50.780;5.658;2024-01-30T05:08:16;12.00;73.50
83283;DHT22;73190;50.780;5.658;2024-01-30T05:10:43;12.10;73.10
83283;DHT22;73190;50.780;5.658;2024-01-30T05:13:11;12.10;73.30
83283;DHT22;73190;50.780;5.658;2024-01-30T05:15:40;12.10;73.40
83283;DHT22;73190;50.780;5.658;2024-01-30T05:18:07;12.10;73.40
83283;DHT22;73190;50.780;5.658;2024-01-30T05:20:35;12.20;73.20
83283;DHT22;73190;50.780;5.658;2024-01-30T05:23:02;12.10;73.50
83283;DHT22;73190;50.780;5.658;2024-01-30T05:25:30;12.10;73.50
83283;DHT22;73190;50.780;5.658;2024-01-30T05:27:58;12.10;73.40
83283;DHT22;73190;50.780;5.658;2024-01-30T05:30:25;12.10;73.40
83283;DHT22;73190;50.780;5.658;2024-01-30T05:32:53;12.10;73.50
83283;DHT22;73190;50.780;5.658;2024-01-30T05:35:20;12.30;72.90
83283;DHT22;73190;50.780;5.658;2024-01-30T05:37:50;12.40;72.40
83283;DHT22;73190;50.780;5.658;2024-01-30T05:40:18;12.40;72.50
83283;DHT22;73190;50.780;5.658;2024-01-30T05:42:45;12.30;72.50
83283;DHT22;73190;50.780;5.658;2024-01-30T05:45:13;12.40;72.40
83283;DHT22;73190;50.780;5.658;2024-01-30T05:47:40;12.40;72.30
83283;DHT22;73190;50.780;5.658;2024-01-30T05:50:08;12.40;72.30
83283;DHT22;73190;50.780;5.658;2024-01-30T05:52:35;12.50;72.00
83283;DHT22;73190;50.780;5.658;2024-01-30T05:55:03;12.30;72.80
83283;DHT22;73190;50.780;5.658;2024-01-30T05:57:32;12.30;73.10
83283;DHT22;73190;50.780;5.658;2024-01-30T05:59:59;12.30;73.20
83283;DHT22;73190;50.780;5.658;2024-01-30T06:02:27;12.20;73.90
83283;DHT22;73190;50.780;5.658;2024-01-30T06:04:54;12.00;74.40
83283;DHT22;73190;50.780;5.658;2024-01-30T06:07:22;12.20;74.10
83283;DHT22;73190;50.780;5.658;2024-01-30T06:09:49;12.20;73.80
83283;DHT22;73190;50.780;5.658;2024-01-30T06:12:17;12.10;74.50
83283;DHT22;73190;50.780;5.658;2024-01-30T06:14:44;12.00;74.70
83283;DHT22;73190;50.780;5.658;2024-01-30T06:17:12;12.10;74.20
83283;DHT22;73190;50.780;5.658;2024-01-30T06:19:40;12.10;74.30
83283;DHT22;73190;50.780;5.658;2024-01-30T06:22:08;12.20;74.20
83283;DHT22;73190;50.780;5.658;2024-01-30T06:24:35;12.20;73.90
83283;DHT22;73190;50.780;5.658;2024-01-30T06:27:03;12.40;73.70
83283;DHT22;73190;50.780;5.658;2024-01-30T06:29:31;12.30;74.50
83283;DHT22;73190;50.780;5.658;2024-01-30T06:31:59;12.30;74.00
83283;DHT22;73190;50.780;5.658;2024-01-30T06:34:26;12.20;74.80
83283;DHT22;73190;50.780;5.658;2024-01-30T06:36:54;12.10;75.90
83283;DHT22;73190;50.780;5.658;2024-01-30T06:39:23;12.20;74.90
83283;DHT22;73190;50.780;5.658;2024-01-30T06:41:51;12.20;75.40
83283;DHT22;73190;50.780;5.658;2024-01-30T06:44:19;12.20;75.20
83283;DHT22;73190;50.780;5.658;2024-01-30T06:46:46;12.20;75.10
83283;DHT22;73190;50.780;5.658;2024-01-30T06:49:14;12.20;74.90
83283;DHT22;73190;50.780;5.658;2024-01-30T06:51:41;12.30;74.40
83283;DHT22;73190;50.780;5.658;2024-01-30T06:54:09;12.50;73.90
83283;DHT22;73190;50.780;5.658;2024-01-30T06:56:36;12.50;73.60
83283;DHT22;73190;50.780;5.658;2024-01-30T06:59:04;12.40;74.20
83283;DHT22;73190;50.780;5.658;2024-01-30T07:01:31;12.30;74.70
83283;DHT22;73190;50.780;5.658;2024-01-30T07:03:59;12.40;75.40
83283;DHT22;73190;50.780;5.658;2024-01-30T07:06:26;12.30;74.90
83283;DHT22;73190;50.780;5.658;2024-01-30T07:08:54;12.40;74.70
83283;DHT22;73190;50.780;5.658;2024-01-30T07:11:22;12.40;74.50
83283;DHT22;73190;50.780;5.658;2024-01-30T07:13:53;12.50;73.90
83283;DHT22;73190;50.780;5.658;2024-01-30T07:16:21;12.50;73.90
83283;DHT22;73190;50.780;5.658;2024-01-30T07:18:49;12.40;74.40
83283;DHT22;73190;50.780;5.658;2024-01-30T07:21:17;12.40;74.40
83283;DHT22;73190;50.780;5.658;2024-01-30T07:23:45;12.30;74.60
83283;DHT22;73190;50.780;5.658;2024-01-30T07:26:15;12.40;74.50
83283;DHT22;73190;50.780;5.658;2024-01-30T07:28:45;12.40;74.20
83283;DHT22;73190;50.780;5.658;2024-01-30T07:31:23;12.40;74.10
83283;DHT22;73190;50.780;5.658;2024-01-30T07:33:58;12.40;74.00
83283;DHT22;73190;50.780;5.658;2024-01-30T07:36:35;12.40;74.20
83283;DHT22;73190;50.780;5.658;2024-01-30T07:39:04;12.50;73.60
83283;DHT22;73190;50.780;5.658;2024-01-30T07:41:31;12.60;73.50
83283;DHT22;73190;50.780;5.658;2024-01-30T07:43:59;12.40;73.90
83283;DHT22;73190;50.780;5.658;2024-01-30T07:46:27;12.40;74.30
83283;DHT22;73190;50.780;5.658;2024-01-30T07:48:54;12.40;74.10
83283;DHT22;73190;50.780;5.658;2024-01-30T07:51:24;12.50;74.10
83283;DHT22;73190;50.780;5.658;2024-01-30T07:53:52;12.40;74.50
83283;DHT22;73190;50.780;5.658;2024-01-30T07:56:19;12.30;75.00
83283;DHT22;73190;50.780;5.658;2024-01-30T07:58:47;12.20;75.40
83283;DHT22;73190;50.780;5.658;2024-01-30T08:01:15;12.10;75.70
83283;DHT22;73190;50.780;5.658;2024-01-30T08:03:43;12.10;75.90
83283;DHT22;73190;50.780;5.658;2024-01-30T08:06:10;12.10;75.70
83283;DHT22;73190;50.780;5.658;2024-01-30T08:08:38;12.20;76.00
83283;DHT22;73190;50.780;5.658;2024-01-30T08:11:05;12.20;75.70
83283;DHT22;73190;50.780;5.658;2024-01-30T08:13:34;12.20;75.70
83283;DHT22;73190;50.780;5.658;2024-01-30T08:16:02;12.30;75.70
83283;DHT22;73190;50.780;5.658;2024-01-30T08:18:31;12.10;76.70
83283;DHT22;73190;50.780;5.658;2024-01-30T08:21:01;12.20;76.10
83283;DHT22;73190;50.780;5.658;2024-01-30T08:23:28;12.10;76.20
83283;DHT22;73190;50.780;5.658;2024-01-30T08:25:56;12.30;75.70
83283;DHT22;73190;50.780;5.658;2024-01-30T08:28:23;12.20;75.90
83283;DHT22;73190;50.780;5.658;2024-01-30T08:30:51;12.20;76.40
83283;DHT22;73190;50.780;5.658;2024-01-30T08:33:18;12.20;76.30
83283;DHT22;73190;50.780;5.658;2024-01-30T08:35:48;12.30;76.00
83283;DHT22;73190;50.780;5.658;2024-01-30T08:38:18;12.30;75.70
83283;DHT22;73190;50.780;5.658;2024-01-30T08:40:47;12.40;75.70
83283;DHT22;73190;50.780;5.658;2024-01-30T08:43:14;12.50;75.30
83283;DHT22;73190;50.780;5.658;2024-01-30T08:45:42;12.60;74.80
83283;DHT22;73190;50.780;5.658;2024-01-30T08:48:10;12.70;74.30
83283;DHT22;73190;50.780;5.658;2024-01-30T08:50:37;12.70;74.70
83283;DHT22;73190;50.780;5.658;2024-01-30T08:53:05;12.60;75.00
83283;DHT22;73190;50.780;5.658;2024-01-30T08:55:33;12.80;74.40
83283;DHT22;73190;50.780;5.658;2024-01-30T08:58:00;12.90;73.90
83283;DHT22;73190;50.780;5.658;2024-01-30T09:00:29;12.80;74.40
83283;DHT22;73190;50.780;5.658;2024-01-30T09:02:57;12.90;74.20
83283;DHT22;73190;50.780;5.658;2024-01-30T09:05:24;12.80;74.20
83283;DHT22;73190;50.780;5.658;2024-01-30T09:07:52;13.00;73.70
83283;DHT22;73190;50.780;5.658;2024-01-30T09:10:20;13.00;74.00
83283;DHT22;73190;50.780;5.658;2024-01-30T09:12:48;13.00;74.20
83283;DHT22;73190;50.780;5.658;2024-01-30T09:15:15;13.00;74.10
83283;DHT22;73190;50.780;5.658;2024-01-30T09:17:43;13.20;73.40
83283;DHT22;73190;50.780;5.658;2024-01-30T09:20:11;13.40;72.80
83283;DHT22;73190;50.780;5.658;2024-01-30T09:22:38;13.50;71.60
83283;DHT22;73190;50.780;5.658;2024-01-30T09:25:06;13.50;72.00
83283;DHT22;73190;50.780;5.658;2024-01-30T09:27:34;13.70;71.30
83283;DHT22;73190;50.780;5.658;2024-01-30T09:30:01;13.60;71.40
83283;DHT22;73190;50.780;5.658;2024-01-30T09:32:29;13.60;71.10
83283;DHT22;73190;50.780;5.658;2024-01-30T09:34:57;13.60;71.50
83283;DHT22;73190;50.780;5.658;2024-01-30T09:37:24;13.50;71.80
83283;DHT22;73190;50.780;5.658;2024-01-30T09:39:52;13.60;71.70
83283;DHT22;73190;50.780;5.658;2024-01-30T09:42:34;13.60;71.80
83283;DHT22;73190;50.780;5.658;2024-01-30T09:45:06;13.60;71.40
83283;DHT22;73190;50.780;5.658;2024-01-30T09:47:43;13.70;71.50
83283;DHT22;73190;50.780;5.658;2024-01-30T09:50:10;13.90;70.70
83283;DHT22;73190;50.780;5.658;2024-01-30T09:52:37;13.90;70.80
83283;DHT22;73190;50.780;5.658;2024-01-30T09:55:06;13.80;71.20
83283;DHT22;73190;50.780;5.658;2024-01-30T09:57:37;13.50;72.30
83283;DHT22;73190;50.780;5.658;2024-01-30T10:00:06;13.30;72.80
83283;DHT22;73190;50.780;5.658;2024-01-30T10:02:35;13.40;72.80
83283;DHT22;73190;50.780;5.658;2024-01-30T10:05:03;13.40;72.70
83283;DHT22;73190;50.780;5.658;2024-01-30T10:07:30;13.50;72.40
83283;DHT22;73190;50.780;5.658;2024-01-30T10:09:58;13.40;72.80
83283;DHT22;73190;50.780;5.658;2024-01-30T10:12:30;13.40;72.90
83283;DHT22;73190;50.780;5.658;2024-01-30T10:14:57;13.50;72.50
83283;DHT22;73190;50.780;5.658;2024-01-30T10:17:25;13.30;72.90
83283;DHT22;73190;50.780;5.658;2024-01-30T10:19:53;13.30;73.30
83283;DHT22;73190;50.780;5.658;2024-01-30T10:22:21;13.40;73.20
83283;DHT22;73190;50.780;5.658;2024-01-30T10:24:48;13.50;72.90
83283;DHT22;73190;50.780;5.658;2024-01-30T10:27:16;13.30;74.00
83283;DHT22;73190;50.780;5.658;2024-01-30T10:29:48;13.20;74.30
83283;DHT22;73190;50.780;5.658;2024-01-30T10:32:13;13.00;75.50
83283;DHT22;73190;50.780;5.658;2024-01-30T10:34:40;13.00;75.90
83283;DHT22;73190;50.780;5.658;2024-01-30T10:37:09;13.00;75.50
83283;DHT22;73190;50.780;5.658;2024-01-30T10:39:43;13.40;74.20
83283;DHT22;73190;50.780;5.658;2024-01-30T10:42:18;13.20;74.50
83283;DHT22;73190;50.780;5.658;2024-01-30T10:45:14;13.30;74.40
83283;DHT22;73190;50.780;5.658;2024-01-30T10:47:50;13.10;75.10
83283;DHT22;73190;50.780;5.658;2024-01-30T10:50:18;13.10;75.70
83283;DHT22;73190;50.780;5.658;2024-01-30T10:52:46;13.20;75.40
83283;DHT22;73190;50.780;5.658;2024-01-30T10:55:16;13.20;75.60
83283;DHT22;73190;50.780;5.658;2024-01-30T10:57:45;13.10;75.90
83283;DHT22;73190;50.780;5.658;2024-01-30T11:00:14;13.10;76.10
83283;DHT22;73190;50.780;5.658;2024-01-30T11:02:47;13.20;76.30
83283;DHT22;73190;50.780;5.658;2024-01-30T11:05:15;13.30;76.00
83283;DHT22;73190;50.780;5.658;2024-01-30T11:07:44;13.40;75.80
83283;DHT22;73190;50.780;5.658;2024-01-30T11:10:12;13.50;75.40
83283;DHT22;73190;50.780;5.658;2024-01-30T11:12:41;13.30;76.50
83283;DHT22;73190;50.780;5.658;2024-01-30T11:15:15;13.50;76.00
83283;DHT22;73190;50.780;5.658;2024-01-30T11:17:51;13.40;76.90
83283;DHT22;73190;50.780;5.658;2024-01-30T11:20:31;13.30;77.30
83283;DHT22;73190;50.780;5.658;2024-01-30T11:22:56;13.50;76.90
83283;DHT22;73190;50.780;5.658;2024-01-30T11:25:25;13.50;77.40
83283;DHT22;73190;50.780;5.658;2024-01-30T11:27:55;13.70;76.70
83283;DHT22;73190;50.780;5.658;2024-01-30T11:30:26;13.90;75.70
83283;DHT22;73190;50.780;5.658;2024-01-30T11:33:02;13.90;75.70
83283;DHT22;73190;50.780;5.658;2024-01-30T11:35:34;14.00;75.40
83283;DHT22;73190;50.780;5.658;2024-01-30T11:38:03;13.90;76.00
83283;DHT22;73190;50.780;5.658;2024-01-30T11:40:32;13.80;76.40
83283;DHT22;73190;50.780;5.658;2024-01-30T11:43:01;13.90;75.60
83283;DHT22;73190;50.780;5.658;2024-01-30T11:45:29;13.80;76.50
83283;DHT22;73190;50.780;5.658;2024-01-30T11:47:57;13.70;76.90
83283;DHT22;73190;50.780;5.658;2024-01-30T11:50:27;13.80;76.60
83283;DHT22;73190;50.780;5.658;2024-01-30T11:52:55;14.00;75.60
83283;DHT22;73190;50.780;5.658;2024-01-30T11:55:24;14.00;75.10
83283;DHT22;73190;50.780;5.658;2024-01-30T11:57:55;14.10;74.90
83283;DHT22;73190;50.780;5.658;2024-01-30T12:00:21;14.00;75.10
83283;DHT22;73190;50.780;5.658;2024-01-30T12:02:55;14.10;75.00
83283;DHT22;73190;50.780;5.658;2024-01-30T12:05:24;13.80;76.00
83283;DHT22;73190;50.780;5.658;2024-01-30T12:07:52;13.80;76.30
83283;DHT22;73190;50.780;5.658;2024-01-30T12:10:20;13.70;76.70
83283;DHT22;73190;50.780;5.658;2024-01-30T12:12:50;13.70;76.60
83283;DHT22;73190;50.780;5.658;2024-01-30T12:15:18;13.60;77.00
83283;DHT22;73190;50.780;5.658;2024-01-30T12:17:47;13.60;76.90
83283;DHT22;73190;50.780;5.658;2024-01-30T12:20:19;13.70;76.90
83283;DHT22;73190;50.780;5.658;2024-01-30T12:22:49;13.70;76.70
83283;DHT22;73190;50.780;5.658;2024-01-30T12:25:18;13.90;76.10
83283;DHT22;73190;50.780;5.658;2024-01-30T12:27:48;13.50;77.20
83283;DHT22;73190;50.780;5.658;2024-01-30T12:30:20;13.40;77.80
83283;DHT22;73190;50.780;5.658;2024-01-30T12:32:49;13.50;77.50
83283;DHT22;73190;50.780;5.658;2024-01-30T12:35:19;13.50;77.60
83283;DHT22;73190;50.780;5.658;2024-01-30T12:37:48;13.60;78.00
83283;DHT22;73190;50.780;5.658;2024-01-30T12:40:16;13.70;76.70
83283;DHT22;73190;50.780;5.658;2024-01-30T12:42:46;13.60;76.60
83283;DHT22;73190;50.780;5.658;2024-01-30T12:45:17;13.40;77.90
83283;DHT22;73190;50.780;5.658;2024-01-30T12:47:49;13.40;77.80
83283;DHT22;73190;50.780;5.658;2024-01-30T12:50:16;13.30;78.20
83283;DHT22;73190;50.780;5.658;2024-01-30T12:52:45;13.20;78.80
83283;DHT22;73190;50.780;5.658;2024-01-30T12:55:13;13.40;78.20
83283;DHT22;73190;50.780;5.658;2024-01-30T12:57:41;13.50;77.30
83283;DHT22;73190;50.780;5.658;2024-01-30T13:00:09;13.40;77.80
83283;DHT22;73190;50.780;5.658;2024-01-30T13:02:37;13.50;77.70
83283;DHT22;73190;50.780;5.658;2024-01-30T13:05:06;13.60;76.90
83283;DHT22;73190;50.780;5.658;2024-01-30T13:07:34;13.20;78.30
83283;DHT22;73190;50.780;5.658;2024-01-30T13:10:03;13.30;78.70
83283;DHT22;73190;50.780;5.658;2024-01-30T13:12:30;13.40;77.70
83283;DHT22;73190;50.780;5.658;2024-01-30T13:15:00;13.50;77.70
83283;DHT22;73190;50.780;5.658;2024-01-30T13:17:31;13.60;77.10
83283;DHT22;73190;50.780;5.658;2024-01-30T13:19:59;13.50;77.60
83283;DHT22;73190;50.780;5.658;2024-01-30T13:22:27;13.50;77.80
83283;DHT22;73190;50.780;5.658;2024-01-30T13:24:54;13.50;77.70
83283;DHT22;73190;50.780;5.658;2024-01-30T13:27:22;13.50;77.90
83283;DHT22;73190;50.780;5.658;2024-01-30T13:29:49;13.30;78.50
83283;DHT22;73190;50.780;5.658;2024-01-30T13:32:17;13.20;79.20
83283;DHT22;73190;50.780;5.658;2024-01-30T13:34:44;13.40;78.50
83283;DHT22;73190;50.780;5.658;2024-01-30T13:37:12;13.40;78.50
83283;DHT22;73190;50.780;5.658;2024-01-30T13:39:40;13.40;78.50
83283;DHT22;73190;50.780;5.658;2024-01-30T13:42:07;13.40;78.50
83283;DHT22;73190;50.780;5.658;2024-01-30T13:44:36;13.30;79.20
83283;DHT22;73190;50.780;5.658;2024-01-30T13:47:03;13.30;78.00
83283;DHT22;73190;50.780;5.658;2024-01-30T13:49:31;13.40;76.20
83283;DHT22;73190;50.780;5.658;2024-01-30T13:52:00;13.20;75.80
83283;DHT22;73190;50.780;5.658;2024-01-30T13:54:27;13.00;75.30
83283;DHT22;73190;50.780;5.658;2024-01-30T13:56:55;13.00;75.30
83283;DHT22;73190;50.780;5.658;2024-01-30T13:59:23;13.00;75.30
83283;DHT22;73190;50.780;5.658;2024-01-30T14:01:52;12.80;75.40
83283;DHT22;73190;50.780;5.658;2024-01-30T14:04:19;12.70;76.00
83283;DHT22;73190;50.780;5.658;2024-01-30T14:06:47;12.70;75.80
83283;DHT22;73190;50.780;5.658;2024-01-30T14:09:15;12.70;75.20
83283;DHT22;73190;50.780;5.658;2024-01-30T14:11:42;12.60;75.60
83283;DHT22;73190;50.780;5.658;2024-01-30T14:14:10;12.60;75.40
83283;DHT22;73190;50.780;5.658;2024-01-30T14:16:38;12.50;76.20
83283;DHT22;73190;50.780;5.658;2024-01-30T14:19:05;12.50;76.10
83283;DHT22;73190;50.780;5.658;2024-01-30T14:21:33;12.50;75.70
83283;DHT22;73190;50.780;5.658;2024-01-30T14:24:00;12.50;75.40
83283;DHT22;73190;50.780;5.658;2024-01-30T14:26:29;12.50;75.80
83283;DHT22;73190;50.780;5.658;2024-01-30T14:28:56;12.60;75.50
83283;DHT22;73190;50.780;5.658;2024-01-30T14:31:24;12.40;76.00
83283;DHT22;73190;50.780;5.658;2024-01-30T14:33:51;12.40;76.20
83283;DHT22;73190;50.780;5.658;2024-01-30T14:36:19;12.50;75.70
83283;DHT22;73190;50.780;5.658;2024-01-30T14:38:47;12.50;76.00
83283;DHT22;73190;50.780;5.658;2024-01-30T14:41:14;12.50;75.90
83283;DHT22;73190;50.780;5.658;2024-01-30T14:43:42;12.60;74.90
83283;DHT22;73190;50.780;5.658;2024-01-30T14:46:09;12.60;74.50
83283;DHT22;73190;50.780;5.658;2024-01-30T14:48:37;12.60;73.90
83283;DHT22;73190;50.780;5.658;2024-01-30T14:51:05;12.60;73.50
83283;DHT22;73190;50.780;5.658;2024-01-30T14:53:32;12.70;71.80
83283;DHT22;73190;50.780;5.658;2024-01-30T14:56:00;12.60;71.20
83283;DHT22;73190;50.780;5.658;2024-01-30T14:58:29;12.50;71.70
83283;DHT22;73190;50.780;5.658;2024-01-30T15:00:57;12.60;70.80
83283;DHT22;73190;50.780;5.658;2024-01-30T15:03:24;12.60;71.50
83283;DHT22;73190;50.780;5.658;2024-01-30T15:05:52;12.60;71.20
83283;DHT22;73190;50.780;5.658;2024-01-30T15:08:21;12.50;71.00
83283;DHT22;73190;50.780;5.658;2024-01-30T15:10:49;12.50;71.80
83283;DHT22;73190;50.780;5.658;2024-01-30T15:13:17;12.40;71.40
83283;DHT22;73190;50.780;5.658;2024-01-30T15:15:45;12.40;71.20
83283;DHT22;73190;50.780;5.658;2024-01-30T15:18:13;12.40;71.50
83283;DHT22;73190;50.780;5.658;2024-01-30T15:20:40;12.60;70.70
83283;DHT22;73190;50.780;5.658;2024-01-30T15:23:08;12.60;70.30
83283;DHT22;73190;50.780;5.658;2024-01-30T15:25:36;12.50;69.80
83283;DHT22;73190;50.780;5.658;2024-01-30T15:28:04;12.50;68.90
83283;DHT22;73190;50.780;5.658;2024-01-30T15:30:35;12.40;69.30
83283;DHT22;73190;50.780;5.658;2024-01-30T15:33:02;12.40;69.10
83283;DHT22;73190;50.780;5.658;2024-01-30T15:35:30;12.30;69.50